sensor_id;sensor_type;location;lat;lon;timestamp;P1;durP1;ratioP1;P2;durP2;ratioP2
80185;SDS011;69904;52.122;5.422;2023-06-22T00:01:19;6.97;;;3.72;;
80185;SDS011;69904;52.122;5.422;2023-06-22T00:03:47;4.78;;;2.88;;
80185;SDS011;69904;52.122;5.422;2023-06-22T00:06:14;6.03;;;3.03;;
80185;SDS011;69904;52.122;5.422;2023-06-22T00:11:07;6.03;;;3.00;;
80185;SDS011;69904;52.122;5.422;2023-06-22T00:13:34;5.00;;;3.22;;
80185;SDS011;69904;52.122;5.422;2023-06-22T00:16:00;4.18;;;2.38;;
80185;SDS011;69904;52.122;5.422;2023-06-22T00:20:55;5.28;;;2.70;;
80185;SDS011;69904;52.122;5.422;2023-06-22T00:23:25;4.65;;;2.58;;
80185;SDS011;69904;52.122;5.422;2023-06-22T00:25:51;7.68;;;2.70;;
80185;SDS011;69904;52.122;5.422;2023-06-22T00:28:18;5.18;;;2.35;;
80185;SDS011;69904;52.122;5.422;2023-06-22T00:33:12;6.25;;;2.83;;
80185;SDS011;69904;52.122;5.422;2023-06-22T00:35:38;5.47;;;2.70;;
80185;SDS011;69904;52.122;5.422;2023-06-22T00:38:07;4.78;;;2.78;;
80185;SDS011;69904;52.122;5.422;2023-06-22T00:40:34;6.18;;;3.40;;
80185;SDS011;69904;52.122;5.422;2023-06-22T00:43:01;5.25;;;3.10;;
80185;SDS011;69904;52.122;5.422;2023-06-22T00:47:55;5.82;;;3.60;;
80185;SDS011;69904;52.122;5.422;2023-06-22T00:50:24;5.90;;;2.97;;
80185;SDS011;69904;52.122;5.422;2023-06-22T00:52:56;5.40;;;3.45;;
80185;SDS011;69904;52.122;5.422;2023-06-22T00:55:25;7.72;;;3.40;;
80185;SDS011;69904;52.122;5.422;2023-06-22T00:57:54;5.75;;;2.95;;
80185;SDS011;69904;52.122;5.422;2023-06-22T01:00:22;4.90;;;3.33;;
80185;SDS011;69904;52.122;5.422;2023-06-22T01:02:51;4.40;;;2.80;;
80185;SDS011;69904;52.122;5.422;2023-06-22T01:05:19;5.72;;;3.20;;
80185;SDS011;69904;52.122;5.422;2023-06-22T01:08:07;5.50;;;3.00;;
80185;SDS011;69904;52.122;5.422;2023-06-22T01:10:52;5.95;;;2.60;;
80185;SDS011;69904;52.122;5.422;2023-06-22T01:15:58;5.15;;;3.45;;
80185;SDS011;69904;52.122;5.422;2023-06-22T01:18:28;4.53;;;2.88;;
80185;SDS011;69904;52.122;5.422;2023-06-22T01:20:57;6.55;;;3.70;;
80185;SDS011;69904;52.122;5.422;2023-06-22T01:23:29;5.93;;;3.20;;
80185;SDS011;69904;52.122;5.422;2023-06-22T01:26:35;5.82;;;3.30;;
80185;SDS011;69904;52.122;5.422;2023-06-22T01:29:08;6.20;;;3.60;;
80185;SDS011;69904;52.122;5.422;2023-06-22T01:31:38;6.15;;;3.97;;
80185;SDS011;69904;52.122;5.422;2023-06-22T01:34:06;7.18;;;3.58;;
80185;SDS011;69904;52.122;5.422;2023-06-22T01:36:35;6.40;;;4.13;;
80185;SDS011;69904;52.122;5.422;2023-06-22T01:39:02;7.82;;;4.18;;
80185;SDS011;69904;52.122;5.422;2023-06-22T01:41:34;7.57;;;3.88;;
80185;SDS011;69904;52.122;5.422;2023-06-22T01:44:06;8.07;;;4.53;;
80185;SDS011;69904;52.122;5.422;2023-06-22T01:46:37;7.80;;;4.15;;
80185;SDS011;69904;52.122;5.422;2023-06-22T01:49:05;7.57;;;4.07;;
80185;SDS011;69904;52.122;5.422;2023-06-22T01:51:32;7.85;;;4.60;;
80185;SDS011;69904;52.122;5.422;2023-06-22T01:56:25;6.05;;;3.72;;
80185;SDS011;69904;52.122;5.422;2023-06-22T01:58:57;7.60;;;3.95;;
80185;SDS011;69904;52.122;5.422;2023-06-22T02:01:26;6.38;;;3.72;;
80185;SDS011;69904;52.122;5.422;2023-06-22T02:04:02;6.72;;;3.45;;
80185;SDS011;69904;52.122;5.422;2023-06-22T02:06:37;8.30;;;3.80;;
80185;SDS011;69904;52.122;5.422;2023-06-22T02:09:15;5.93;;;4.18;;
80185;SDS011;69904;52.122;5.422;2023-06-22T02:11:44;5.45;;;2.90;;
80185;SDS011;69904;52.122;5.422;2023-06-22T02:14:13;5.28;;;3.17;;
80185;SDS011;69904;52.122;5.422;2023-06-22T02:16:43;5.10;;;3.38;;
80185;SDS011;69904;52.122;5.422;2023-06-22T02:19:10;7.72;;;3.53;;
80185;SDS011;69904;52.122;5.422;2023-06-22T02:21:36;9.30;;;3.45;;
80185;SDS011;69904;52.122;5.422;2023-06-22T02:24:03;7.00;;;3.33;;
80185;SDS011;69904;52.122;5.422;2023-06-22T02:26:30;5.97;;;3.38;;
80185;SDS011;69904;52.122;5.422;2023-06-22T02:28:58;4.45;;;3.08;;
80185;SDS011;69904;52.122;5.422;2023-06-22T02:31:24;5.82;;;3.03;;
80185;SDS011;69904;52.122;5.422;2023-06-22T02:33:57;5.95;;;3.35;;
80185;SDS011;69904;52.122;5.422;2023-06-22T02:36:25;6.10;;;3.28;;
80185;SDS011;69904;52.122;5.422;2023-06-22T02:38:53;4.80;;;3.60;;
80185;SDS011;69904;52.122;5.422;2023-06-22T02:41:22;6.80;;;3.80;;
80185;SDS011;69904;52.122;5.422;2023-06-22T02:43:48;7.13;;;3.10;;
80185;SDS011;69904;52.122;5.422;2023-06-22T02:46:15;9.20;;;3.50;;
80185;SDS011;69904;52.122;5.422;2023-06-22T02:48:41;7.85;;;3.95;;
80185;SDS011;69904;52.122;5.422;2023-06-22T02:51:11;6.80;;;4.10;;
80185;SDS011;69904;52.122;5.422;2023-06-22T02:53:38;6.88;;;3.63;;
80185;SDS011;69904;52.122;5.422;2023-06-22T02:56:04;5.72;;;3.58;;
80185;SDS011;69904;52.122;5.422;2023-06-22T02:58:33;5.03;;;3.20;;
80185;SDS011;69904;52.122;5.422;2023-06-22T03:01:04;5.13;;;3.28;;
80185;SDS011;69904;52.122;5.422;2023-06-22T03:03:32;6.93;;;3.42;;
80185;SDS011;69904;52.122;5.422;2023-06-22T03:05:59;4.45;;;2.95;;
80185;SDS011;69904;52.122;5.422;2023-06-22T03:08:27;6.45;;;3.30;;
80185;SDS011;69904;52.122;5.422;2023-06-22T03:10:55;5.95;;;3.63;;
80185;SDS011;69904;52.122;5.422;2023-06-22T03:13:26;7.22;;;3.60;;
80185;SDS011;69904;52.122;5.422;2023-06-22T03:15:53;5.85;;;3.22;;
80185;SDS011;69904;52.122;5.422;2023-06-22T03:18:19;5.28;;;3.10;;
80185;SDS011;69904;52.122;5.422;2023-06-22T03:20:48;5.15;;;3.40;;
80185;SDS011;69904;52.122;5.422;2023-06-22T03:23:14;5.75;;;3.13;;
80185;SDS011;69904;52.122;5.422;2023-06-22T03:25:42;6.88;;;3.55;;
80185;SDS011;69904;52.122;5.422;2023-06-22T03:28:10;7.20;;;3.63;;
80185;SDS011;69904;52.122;5.422;2023-06-22T03:30:37;7.40;;;3.78;;
80185;SDS011;69904;52.122;5.422;2023-06-22T03:33:03;8.27;;;3.72;;
80185;SDS011;69904;52.122;5.422;2023-06-22T03:35:30;4.72;;;3.58;;
80185;SDS011;69904;52.122;5.422;2023-06-22T03:37:56;9.27;;;4.55;;
80185;SDS011;69904;52.122;5.422;2023-06-22T03:40:22;6.88;;;4.45;;
80185;SDS011;69904;52.122;5.422;2023-06-22T03:42:49;8.27;;;4.82;;
80185;SDS011;69904;52.122;5.422;2023-06-22T03:45:16;9.15;;;4.78;;
80185;SDS011;69904;52.122;5.422;2023-06-22T03:47:42;6.47;;;3.95;;
80185;SDS011;69904;52.122;5.422;2023-06-22T03:50:09;8.40;;;4.30;;
80185;SDS011;69904;52.122;5.422;2023-06-22T03:55:02;8.15;;;4.88;;
80185;SDS011;69904;52.122;5.422;2023-06-22T03:57:29;5.78;;;4.18;;
80185;SDS011;69904;52.122;5.422;2023-06-22T03:59:56;7.93;;;5.10;;
80185;SDS011;69904;52.122;5.422;2023-06-22T04:02:24;10.18;;;4.80;;
80185;SDS011;69904;52.122;5.422;2023-06-22T04:04:50;8.80;;;4.93;;
80185;SDS011;69904;52.122;5.422;2023-06-22T04:07:17;9.80;;;5.28;;
80185;SDS011;69904;52.122;5.422;2023-06-22T04:09:44;9.50;;;5.60;;
80185;SDS011;69904;52.122;5.422;2023-06-22T04:12:10;9.43;;;4.85;;
80185;SDS011;69904;52.122;5.422;2023-06-22T04:14:37;9.35;;;5.50;;
80185;SDS011;69904;52.122;5.422;2023-06-22T04:17:03;10.32;;;5.80;;
80185;SDS011;69904;52.122;5.422;2023-06-22T04:19:30;8.80;;;5.70;;
80185;SDS011;69904;52.122;5.422;2023-06-22T04:21:57;8.15;;;5.25;;
80185;SDS011;69904;52.122;5.422;2023-06-22T04:24:23;9.82;;;5.47;;
80185;SDS011;69904;52.122;5.422;2023-06-22T04:26:50;7.82;;;4.80;;
80185;SDS011;69904;52.122;5.422;2023-06-22T04:29:21;11.88;;;6.50;;
80185;SDS011;69904;52.122;5.422;2023-06-22T04:31:54;10.52;;;6.22;;
80185;SDS011;69904;52.122;5.422;2023-06-22T04:34:22;10.98;;;6.45;;
80185;SDS011;69904;52.122;5.422;2023-06-22T04:36:49;11.00;;;6.25;;
80185;SDS011;69904;52.122;5.422;2023-06-22T04:39:16;13.13;;;7.53;;
80185;SDS011;69904;52.122;5.422;2023-06-22T04:41:42;13.25;;;7.00;;
80185;SDS011;69904;52.122;5.422;2023-06-22T04:46:39;11.60;;;7.00;;
80185;SDS011;69904;52.122;5.422;2023-06-22T04:49:08;14.95;;;7.22;;
80185;SDS011;69904;52.122;5.422;2023-06-22T04:51:41;14.48;;;7.72;;
80185;SDS011;69904;52.122;5.422;2023-06-22T04:54:08;14.23;;;8.32;;
80185;SDS011;69904;52.122;5.422;2023-06-22T04:56:35;17.60;;;7.97;;
80185;SDS011;69904;52.122;5.422;2023-06-22T04:59:02;14.18;;;8.18;;
80185;SDS011;69904;52.122;5.422;2023-06-22T05:01:31;15.23;;;7.90;;
80185;SDS011;69904;52.122;5.422;2023-06-22T05:03:58;12.65;;;7.88;;
80185;SDS011;69904;52.122;5.422;2023-06-22T05:06:27;15.43;;;8.38;;
80185;SDS011;69904;52.122;5.422;2023-06-22T05:11:27;13.88;;;8.35;;
80185;SDS011;69904;52.122;5.422;2023-06-22T05:13:54;15.57;;;9.40;;
80185;SDS011;69904;52.122;5.422;2023-06-22T05:16:21;19.13;;;9.90;;
80185;SDS011;69904;52.122;5.422;2023-06-22T05:18:50;17.02;;;10.10;;
80185;SDS011;69904;52.122;5.422;2023-06-22T05:21:18;16.13;;;9.80;;
80185;SDS011;69904;52.122;5.422;2023-06-22T05:23:46;16.73;;;10.57;;
80185;SDS011;69904;52.122;5.422;2023-06-22T05:26:12;15.15;;;9.57;;
80185;SDS011;69904;52.122;5.422;2023-06-22T05:31:05;23.40;;;11.77;;
80185;SDS011;69904;52.122;5.422;2023-06-22T05:33:32;20.23;;;11.80;;
80185;SDS011;69904;52.122;5.422;2023-06-22T05:35:59;21.02;;;11.55;;
80185;SDS011;69904;52.122;5.422;2023-06-22T05:38:25;20.08;;;12.18;;
80185;SDS011;69904;52.122;5.422;2023-06-22T05:40:52;20.13;;;11.70;;
80185;SDS011;69904;52.122;5.422;2023-06-22T05:43:18;20.60;;;11.32;;
80185;SDS011;69904;52.122;5.422;2023-06-22T05:45:45;24.48;;;12.45;;
80185;SDS011;69904;52.122;5.422;2023-06-22T05:48:11;20.80;;;12.15;;
80185;SDS011;69904;52.122;5.422;2023-06-22T05:50:38;19.33;;;12.23;;
80185;SDS011;69904;52.122;5.422;2023-06-22T05:53:04;21.20;;;11.30;;
80185;SDS011;69904;52.122;5.422;2023-06-22T05:55:32;21.65;;;11.43;;
80185;SDS011;69904;52.122;5.422;2023-06-22T05:58:01;22.83;;;12.07;;
80185;SDS011;69904;52.122;5.422;2023-06-22T06:00:29;21.40;;;12.20;;
80185;SDS011;69904;52.122;5.422;2023-06-22T06:02:57;20.95;;;12.48;;
80185;SDS011;69904;52.122;5.422;2023-06-22T06:05:29;19.55;;;12.48;;
80185;SDS011;69904;52.122;5.422;2023-06-22T06:07:57;20.92;;;12.18;;
80185;SDS011;69904;52.122;5.422;2023-06-22T06:10:24;17.50;;;12.05;;
80185;SDS011;69904;52.122;5.422;2023-06-22T06:12:51;23.08;;;12.43;;
80185;SDS011;69904;52.122;5.422;2023-06-22T06:15:18;19.77;;;11.95;;
80185;SDS011;69904;52.122;5.422;2023-06-22T06:17:49;20.30;;;11.80;;
80185;SDS011;69904;52.122;5.422;2023-06-22T06:20:19;21.08;;;11.23;;
80185;SDS011;69904;52.122;5.422;2023-06-22T06:22:50;18.52;;;11.20;;
80185;SDS011;69904;52.122;5.422;2023-06-22T06:25:17;20.08;;;11.13;;
80185;SDS011;69904;52.122;5.422;2023-06-22T06:27:46;19.92;;;11.40;;
80185;SDS011;69904;52.122;5.422;2023-06-22T06:30:14;20.45;;;11.57;;
80185;SDS011;69904;52.122;5.422;2023-06-22T06:32:43;20.35;;;11.85;;
80185;SDS011;69904;52.122;5.422;2023-06-22T06:35:12;19.00;;;11.32;;
80185;SDS011;69904;52.122;5.422;2023-06-22T06:37:41;19.98;;;11.25;;
80185;SDS011;69904;52.122;5.422;2023-06-22T06:40:08;19.33;;;10.85;;
80185;SDS011;69904;52.122;5.422;2023-06-22T06:42:40;16.67;;;11.32;;
80185;SDS011;69904;52.122;5.422;2023-06-22T06:45:17;18.33;;;11.20;;
80185;SDS011;69904;52.122;5.422;2023-06-22T06:47:45;20.50;;;12.95;;
80185;SDS011;69904;52.122;5.422;2023-06-22T06:50:13;21.38;;;12.30;;
80185;SDS011;69904;52.122;5.422;2023-06-22T06:52:39;18.67;;;10.52;;
80185;SDS011;69904;52.122;5.422;2023-06-22T06:55:06;19.08;;;10.80;;
80185;SDS011;69904;52.122;5.422;2023-06-22T06:57:36;18.13;;;11.70;;
80185;SDS011;69904;52.122;5.422;2023-06-22T07:00:07;18.05;;;11.07;;
80185;SDS011;69904;52.122;5.422;2023-06-22T07:02:40;17.30;;;11.70;;
80185;SDS011;69904;52.122;5.422;2023-06-22T07:05:11;15.15;;;10.45;;
80185;SDS011;69904;52.122;5.422;2023-06-22T07:07:38;16.42;;;10.82;;
80185;SDS011;69904;52.122;5.422;2023-06-22T07:10:05;19.02;;;11.18;;
80185;SDS011;69904;52.122;5.422;2023-06-22T07:12:32;15.23;;;9.80;;
80185;SDS011;69904;52.122;5.422;2023-06-22T07:15:06;14.95;;;9.45;;
80185;SDS011;69904;52.122;5.422;2023-06-22T07:17:38;15.25;;;9.35;;
80185;SDS011;69904;52.122;5.422;2023-06-22T07:20:08;15.07;;;8.95;;
80185;SDS011;69904;52.122;5.422;2023-06-22T07:22:40;15.77;;;9.02;;
80185;SDS011;69904;52.122;5.422;2023-06-22T07:25:08;12.35;;;7.97;;
80185;SDS011;69904;52.122;5.422;2023-06-22T07:27:36;15.65;;;9.30;;
80185;SDS011;69904;52.122;5.422;2023-06-22T07:30:04;13.25;;;8.25;;
80185;SDS011;69904;52.122;5.422;2023-06-22T07:32:31;14.38;;;8.60;;
80185;SDS011;69904;52.122;5.422;2023-06-22T07:34:58;14.75;;;9.27;;
80185;SDS011;69904;52.122;5.422;2023-06-22T07:39:50;12.73;;;7.80;;
80185;SDS011;69904;52.122;5.422;2023-06-22T07:42:19;15.18;;;8.48;;
80185;SDS011;69904;52.122;5.422;2023-06-22T07:44:47;14.52;;;8.63;;
80185;SDS011;69904;52.122;5.422;2023-06-22T07:49:40;12.57;;;8.38;;
80185;SDS011;69904;52.122;5.422;2023-06-22T07:54:33;16.02;;;8.63;;
80185;SDS011;69904;52.122;5.422;2023-06-22T07:56:59;14.18;;;8.75;;
80185;SDS011;69904;52.122;5.422;2023-06-22T07:59:26;12.20;;;7.80;;
80185;SDS011;69904;52.122;5.422;2023-06-22T08:04:19;12.82;;;8.55;;
80185;SDS011;69904;52.122;5.422;2023-06-22T08:09:12;12.75;;;7.35;;
80185;SDS011;69904;52.122;5.422;2023-06-22T08:14:04;14.10;;;8.27;;
80185;SDS011;69904;52.122;5.422;2023-06-22T08:16:31;11.63;;;7.55;;
80185;SDS011;69904;52.122;5.422;2023-06-22T08:18:57;13.60;;;7.50;;
80185;SDS011;69904;52.122;5.422;2023-06-22T08:23:50;13.07;;;7.25;;
80185;SDS011;69904;52.122;5.422;2023-06-22T08:26:16;11.48;;;7.78;;
80185;SDS011;69904;52.122;5.422;2023-06-22T08:28:43;13.27;;;7.85;;
80185;SDS011;69904;52.122;5.422;2023-06-22T08:31:09;10.13;;;6.32;;
80185;SDS011;69904;52.122;5.422;2023-06-22T08:33:38;9.38;;;6.28;;
80185;SDS011;69904;52.122;5.422;2023-06-22T08:36:14;11.57;;;6.30;;
80185;SDS011;69904;52.122;5.422;2023-06-22T08:38:41;9.48;;;6.20;;
80185;SDS011;69904;52.122;5.422;2023-06-22T08:41:07;9.35;;;6.43;;
80185;SDS011;69904;52.122;5.422;2023-06-22T08:43:34;10.05;;;5.50;;
80185;SDS011;69904;52.122;5.422;2023-06-22T08:46:00;10.32;;;5.57;;
80185;SDS011;69904;52.122;5.422;2023-06-22T08:48:28;9.60;;;6.15;;
80185;SDS011;69904;52.122;5.422;2023-06-22T08:50:55;8.95;;;5.53;;
80185;SDS011;69904;52.122;5.422;2023-06-22T08:53:21;9.10;;;5.82;;
80185;SDS011;69904;52.122;5.422;2023-06-22T08:55:47;8.90;;;5.10;;
80185;SDS011;69904;52.122;5.422;2023-06-22T08:58:14;8.30;;;4.70;;
80185;SDS011;69904;52.122;5.422;2023-06-22T09:00:40;7.50;;;5.03;;
80185;SDS011;69904;52.122;5.422;2023-06-22T09:03:07;9.18;;;5.28;;
80185;SDS011;69904;52.122;5.422;2023-06-22T09:05:34;9.02;;;5.53;;
80185;SDS011;69904;52.122;5.422;2023-06-22T09:08:03;6.60;;;4.22;;
80185;SDS011;69904;52.122;5.422;2023-06-22T09:10:29;5.30;;;4.00;;
80185;SDS011;69904;52.122;5.422;2023-06-22T09:12:57;5.88;;;3.90;;
80185;SDS011;69904;52.122;5.422;2023-06-22T09:15:23;5.90;;;3.35;;
80185;SDS011;69904;52.122;5.422;2023-06-22T09:17:50;5.95;;;3.08;;
80185;SDS011;69904;52.122;5.422;2023-06-22T09:20:16;5.18;;;2.80;;
80185;SDS011;69904;52.122;5.422;2023-06-22T09:22:43;4.65;;;2.58;;
80185;SDS011;69904;52.122;5.422;2023-06-22T09:25:09;5.13;;;3.25;;
80185;SDS011;69904;52.122;5.422;2023-06-22T09:27:36;5.70;;;3.72;;
80185;SDS011;69904;52.122;5.422;2023-06-22T09:30:03;7.75;;;3.88;;
80185;SDS011;69904;52.122;5.422;2023-06-22T09:32:30;6.93;;;4.22;;
80185;SDS011;69904;52.122;5.422;2023-06-22T09:34:56;6.78;;;3.55;;
80185;SDS011;69904;52.122;5.422;2023-06-22T09:37:23;6.07;;;3.30;;
80185;SDS011;69904;52.122;5.422;2023-06-22T09:39:49;8.07;;;4.25;;
80185;SDS011;69904;52.122;5.422;2023-06-22T09:42:16;5.68;;;3.70;;
80185;SDS011;69904;52.122;5.422;2023-06-22T09:44:42;6.85;;;3.58;;
80185;SDS011;69904;52.122;5.422;2023-06-22T09:47:09;6.22;;;3.20;;
80185;SDS011;69904;52.122;5.422;2023-06-22T09:49:35;6.40;;;3.10;;
80185;SDS011;69904;52.122;5.422;2023-06-22T09:52:05;5.00;;;3.30;;
80185;SDS011;69904;52.122;5.422;2023-06-22T09:54:31;7.55;;;3.80;;
80185;SDS011;69904;52.122;5.422;2023-06-22T09:56:58;6.93;;;4.07;;
80185;SDS011;69904;52.122;5.422;2023-06-22T09:59:24;6.30;;;4.28;;
80185;SDS011;69904;52.122;5.422;2023-06-22T10:01:51;9.32;;;4.28;;
80185;SDS011;69904;52.122;5.422;2023-06-22T10:04:17;5.47;;;3.80;;
80185;SDS011;69904;52.122;5.422;2023-06-22T10:06:44;8.02;;;3.58;;
80185;SDS011;69904;52.122;5.422;2023-06-22T10:09:11;5.53;;;3.45;;
80185;SDS011;69904;52.122;5.422;2023-06-22T10:11:37;6.28;;;3.30;;
80185;SDS011;69904;52.122;5.422;2023-06-22T10:14:04;5.55;;;3.63;;
80185;SDS011;69904;52.122;5.422;2023-06-22T10:16:31;4.38;;;3.03;;
80185;SDS011;69904;52.122;5.422;2023-06-22T10:18:58;4.35;;;3.40;;
80185;SDS011;69904;52.122;5.422;2023-06-22T10:21:25;6.80;;;3.90;;
80185;SDS011;69904;52.122;5.422;2023-06-22T10:23:53;6.68;;;3.53;;
80185;SDS011;69904;52.122;5.422;2023-06-22T10:26:19;4.75;;;3.00;;
80185;SDS011;69904;52.122;5.422;2023-06-22T10:28:46;5.72;;;3.60;;
80185;SDS011;69904;52.122;5.422;2023-06-22T10:31:12;5.20;;;2.97;;
80185;SDS011;69904;52.122;5.422;2023-06-22T10:33:39;6.50;;;3.47;;
80185;SDS011;69904;52.122;5.422;2023-06-22T10:36:07;5.40;;;3.17;;
80185;SDS011;69904;52.122;5.422;2023-06-22T10:38:34;6.88;;;3.20;;
80185;SDS011;69904;52.122;5.422;2023-06-22T10:41:00;5.13;;;3.20;;
80185;SDS011;69904;52.122;5.422;2023-06-22T10:43:26;4.85;;;3.05;;
80185;SDS011;69904;52.122;5.422;2023-06-22T10:45:53;3.90;;;2.50;;
80185;SDS011;69904;52.122;5.422;2023-06-22T10:48:19;6.75;;;3.25;;
80185;SDS011;69904;52.122;5.422;2023-06-22T10:50:46;5.32;;;2.83;;
80185;SDS011;69904;52.122;5.422;2023-06-22T10:53:13;6.18;;;2.83;;
80185;SDS011;69904;52.122;5.422;2023-06-22T10:55:40;4.68;;;3.22;;
80185;SDS011;69904;52.122;5.422;2023-06-22T10:58:12;5.13;;;3.22;;
80185;SDS011;69904;52.122;5.422;2023-06-22T11:00:38;6.00;;;3.08;;
80185;SDS011;69904;52.122;5.422;2023-06-22T11:03:05;5.32;;;3.08;;
80185;SDS011;69904;52.122;5.422;2023-06-22T11:05:31;9.10;;;3.38;;
80185;SDS011;69904;52.122;5.422;2023-06-22T11:07:58;5.95;;;3.35;;
80185;SDS011;69904;52.122;5.422;2023-06-22T11:10:25;5.68;;;3.63;;
80185;SDS011;69904;52.122;5.422;2023-06-22T11:12:53;9.10;;;3.63;;
80185;SDS011;69904;52.122;5.422;2023-06-22T11:15:19;7.05;;;3.78;;
80185;SDS011;69904;52.122;5.422;2023-06-22T11:17:46;6.38;;;3.63;;
80185;SDS011;69904;52.122;5.422;2023-06-22T11:20:12;5.55;;;3.53;;
80185;SDS011;69904;52.122;5.422;2023-06-22T11:22:42;6.57;;;3.90;;
80185;SDS011;69904;52.122;5.422;2023-06-22T11:25:08;6.88;;;3.45;;
80185;SDS011;69904;52.122;5.422;2023-06-22T11:27:35;4.20;;;3.08;;
80185;SDS011;69904;52.122;5.422;2023-06-22T11:30:01;5.60;;;3.40;;
80185;SDS011;69904;52.122;5.422;2023-06-22T11:32:28;5.35;;;3.28;;
80185;SDS011;69904;52.122;5.422;2023-06-22T11:34:55;5.55;;;3.75;;
80185;SDS011;69904;52.122;5.422;2023-06-22T11:37:21;7.35;;;3.80;;
80185;SDS011;69904;52.122;5.422;2023-06-22T11:39:48;6.88;;;4.15;;
80185;SDS011;69904;52.122;5.422;2023-06-22T11:42:30;6.15;;;3.78;;
80185;SDS011;69904;52.122;5.422;2023-06-22T11:44:57;8.32;;;5.13;;
80185;SDS011;69904;52.122;5.422;2023-06-22T11:47:25;8.25;;;4.10;;
80185;SDS011;69904;52.122;5.422;2023-06-22T11:49:51;10.32;;;4.85;;
80185;SDS011;69904;52.122;5.422;2023-06-22T11:52:18;7.97;;;5.13;;
80185;SDS011;69904;52.122;5.422;2023-06-22T11:54:45;10.98;;;7.40;;
80185;SDS011;69904;52.122;5.422;2023-06-22T11:57:12;9.52;;;5.53;;
80185;SDS011;69904;52.122;5.422;2023-06-22T11:59:38;9.40;;;5.22;;
80185;SDS011;69904;52.122;5.422;2023-06-22T12:02:05;8.18;;;4.95;;
80185;SDS011;69904;52.122;5.422;2023-06-22T12:04:33;8.63;;;5.45;;
80185;SDS011;69904;52.122;5.422;2023-06-22T12:07:00;6.75;;;5.07;;
80185;SDS011;69904;52.122;5.422;2023-06-22T12:09:27;8.18;;;5.53;;
80185;SDS011;69904;52.122;5.422;2023-06-22T12:11:54;11.02;;;5.40;;
80185;SDS011;69904;52.122;5.422;2023-06-22T12:14:21;10.93;;;5.72;;
80185;SDS011;69904;52.122;5.422;2023-06-22T12:16:47;9.48;;;5.85;;
80185;SDS011;69904;52.122;5.422;2023-06-22T12:19:14;9.63;;;6.03;;
80185;SDS011;69904;52.122;5.422;2023-06-22T12:21:41;7.90;;;4.80;;
80185;SDS011;69904;52.122;5.422;2023-06-22T12:24:08;9.77;;;4.72;;
80185;SDS011;69904;52.122;5.422;2023-06-22T12:26:34;8.73;;;5.72;;
80185;SDS011;69904;52.122;5.422;2023-06-22T12:29:01;9.75;;;6.20;;
80185;SDS011;69904;52.122;5.422;2023-06-22T12:31:27;9.10;;;6.63;;
80185;SDS011;69904;52.122;5.422;2023-06-22T12:33:54;11.07;;;6.80;;
80185;SDS011;69904;52.122;5.422;2023-06-22T12:36:20;9.68;;;7.35;;
80185;SDS011;69904;52.122;5.422;2023-06-22T12:38:46;9.38;;;6.65;;
80185;SDS011;69904;52.122;5.422;2023-06-22T12:41:13;9.45;;;6.20;;
80185;SDS011;69904;52.122;5.422;2023-06-22T12:43:40;16.60;;;7.70;;
80185;SDS011;69904;52.122;5.422;2023-06-22T12:46:06;10.50;;;6.90;;
80185;SDS011;69904;52.122;5.422;2023-06-22T12:48:33;9.38;;;6.07;;
80185;SDS011;69904;52.122;5.422;2023-06-22T12:51:00;9.65;;;6.13;;
80185;SDS011;69904;52.122;5.422;2023-06-22T12:53:26;10.73;;;6.05;;
80185;SDS011;69904;52.122;5.422;2023-06-22T12:55:53;8.50;;;5.50;;
80185;SDS011;69904;52.122;5.422;2023-06-22T12:58:20;8.98;;;6.25;;
80185;SDS011;69904;52.122;5.422;2023-06-22T13:00:48;11.25;;;6.38;;
80185;SDS011;69904;52.122;5.422;2023-06-22T13:03:15;8.70;;;5.32;;
80185;SDS011;69904;52.122;5.422;2023-06-22T13:05:41;9.18;;;5.93;;
80185;SDS011;69904;52.122;5.422;2023-06-22T13:08:08;9.85;;;6.20;;
80185;SDS011;69904;52.122;5.422;2023-06-22T13:10:38;9.85;;;6.28;;
80185;SDS011;69904;52.122;5.422;2023-06-22T13:13:04;10.10;;;6.57;;
80185;SDS011;69904;52.122;5.422;2023-06-22T13:15:31;9.75;;;7.13;;
80185;SDS011;69904;52.122;5.422;2023-06-22T13:17:58;10.45;;;6.95;;
80185;SDS011;69904;52.122;5.422;2023-06-22T13:20:24;11.13;;;7.63;;
80185;SDS011;69904;52.122;5.422;2023-06-22T13:22:51;12.93;;;7.65;;
80185;SDS011;69904;52.122;5.422;2023-06-22T13:25:17;13.73;;;7.70;;
80185;SDS011;69904;52.122;5.422;2023-06-22T13:27:46;12.02;;;7.60;;
80185;SDS011;69904;52.122;5.422;2023-06-22T13:30:12;11.45;;;7.30;;
80185;SDS011;69904;52.122;5.422;2023-06-22T13:32:40;8.45;;;6.57;;
80185;SDS011;69904;52.122;5.422;2023-06-22T13:35:10;9.88;;;6.57;;
80185;SDS011;69904;52.122;5.422;2023-06-22T13:37:37;10.77;;;6.88;;
80185;SDS011;69904;52.122;5.422;2023-06-22T13:40:07;9.65;;;6.20;;
80185;SDS011;69904;52.122;5.422;2023-06-22T13:42:34;10.63;;;6.88;;
80185;SDS011;69904;52.122;5.422;2023-06-22T13:45:01;12.45;;;7.22;;
80185;SDS011;69904;52.122;5.422;2023-06-22T13:47:29;12.00;;;6.65;;
80185;SDS011;69904;52.122;5.422;2023-06-22T13:49:57;11.55;;;6.60;;
80185;SDS011;69904;52.122;5.422;2023-06-22T13:52:26;10.40;;;6.90;;
80185;SDS011;69904;52.122;5.422;2023-06-22T13:54:52;9.43;;;7.43;;
80185;SDS011;69904;52.122;5.422;2023-06-22T13:57:19;11.93;;;7.10;;
80185;SDS011;69904;52.122;5.422;2023-06-22T13:59:46;11.70;;;6.43;;
80185;SDS011;69904;52.122;5.422;2023-06-22T14:02:12;9.82;;;6.97;;
80185;SDS011;69904;52.122;5.422;2023-06-22T14:04:39;11.35;;;7.88;;
80185;SDS011;69904;52.122;5.422;2023-06-22T14:07:05;10.95;;;7.22;;
80185;SDS011;69904;52.122;5.422;2023-06-22T14:09:32;10.13;;;7.75;;
80185;SDS011;69904;52.122;5.422;2023-06-22T14:12:02;12.02;;;7.30;;
80185;SDS011;69904;52.122;5.422;2023-06-22T14:14:29;11.88;;;7.38;;
80185;SDS011;69904;52.122;5.422;2023-06-22T14:16:56;12.05;;;7.40;;
80185;SDS011;69904;52.122;5.422;2023-06-22T14:19:22;11.75;;;7.60;;
80185;SDS011;69904;52.122;5.422;2023-06-22T14:21:49;10.10;;;7.00;;
80185;SDS011;69904;52.122;5.422;2023-06-22T14:24:15;10.82;;;7.55;;
80185;SDS011;69904;52.122;5.422;2023-06-22T14:29:08;12.95;;;6.80;;
80185;SDS011;69904;52.122;5.422;2023-06-22T14:31:35;10.85;;;7.22;;
80185;SDS011;69904;52.122;5.422;2023-06-22T14:34:01;14.60;;;7.38;;
80185;SDS011;69904;52.122;5.422;2023-06-22T14:36:29;11.63;;;6.90;;
80185;SDS011;69904;52.122;5.422;2023-06-22T14:38:56;9.32;;;6.90;;
80185;SDS011;69904;52.122;5.422;2023-06-22T14:41:22;12.50;;;8.63;;
80185;SDS011;69904;52.122;5.422;2023-06-22T14:43:49;11.27;;;7.78;;
80185;SDS011;69904;52.122;5.422;2023-06-22T14:46:19;13.93;;;7.47;;
80185;SDS011;69904;52.122;5.422;2023-06-22T14:48:46;10.50;;;7.63;;
80185;SDS011;69904;52.122;5.422;2023-06-22T14:51:12;12.20;;;8.05;;
80185;SDS011;69904;52.122;5.422;2023-06-22T14:53:45;11.30;;;7.30;;
80185;SDS011;69904;52.122;5.422;2023-06-22T14:56:12;10.27;;;7.38;;
80185;SDS011;69904;52.122;5.422;2023-06-22T14:58:41;11.52;;;7.47;;
80185;SDS011;69904;52.122;5.422;2023-06-22T15:01:12;12.10;;;7.75;;
80185;SDS011;69904;52.122;5.422;2023-06-22T15:03:39;11.85;;;7.70;;
80185;SDS011;69904;52.122;5.422;2023-06-22T15:06:06;10.50;;;7.13;;
80185;SDS011;69904;52.122;5.422;2023-06-22T15:08:33;12.27;;;7.40;;
80185;SDS011;69904;52.122;5.422;2023-06-22T15:13:30;13.00;;;7.47;;
80185;SDS011;69904;52.122;5.422;2023-06-22T15:16:01;10.85;;;7.07;;
80185;SDS011;69904;52.122;5.422;2023-06-22T15:18:31;9.60;;;6.40;;
80185;SDS011;69904;52.122;5.422;2023-06-22T15:21:01;11.07;;;7.53;;
80185;SDS011;69904;52.122;5.422;2023-06-22T15:23:29;11.07;;;7.25;;
80185;SDS011;69904;52.122;5.422;2023-06-22T15:25:57;11.38;;;7.40;;
80185;SDS011;69904;52.122;5.422;2023-06-22T15:28:24;11.13;;;7.90;;
80185;SDS011;69904;52.122;5.422;2023-06-22T15:30:51;12.13;;;7.68;;